Time;durP1;ratioP1;P1;durP2;ratioP2;P2;SDS_P1;SDS_P2;PMS_P1;PMS_P2;Temp;Humidity;BMP_temperature;BMP_pressure;BME280_temperature;BME280_humidity;BME280_pressure;Samples;Min_cycle;Max_cycle;Signal;HPM_P1;HPM_P2
2021/12/18 00:02:02;;;;;;;;;;;22.80;25.90;;;;;;5140974;27;19927;-54
2021/12/18 00:04:28;;;;;;;;;;;22.90;25.80;;;;;;5141078;27;20443;-54
2021/12/18 00:06:55;;;;;;;;;;;23.00;25.80;;;;;;5145950;27;20000;-50
2021/12/18 00:09:21;;;;;;;;;;;23.00;25.70;;;;;;5141405;27;19923;-50
2021/12/18 00:11:48;;;;;;;;;;;23.00;25.80;;;;;;5140872;27;19968;-49
2021/12/18 00:14:14;;;;;;;;;;;23.10;25.70;;;;;;5146790;27;20029;-64
2021/12/18 00:16:40;;;;;;;;;;;23.00;25.80;;;;;;5140874;27;19923;-56
2021/12/18 00:19:06;;;;;;;;;;;22.80;26.10;;;;;;5146175;27;20271;-53
2021/12/18 00:21:36;;;;;;;;;;;22.80;26.10;;;;;;5140725;27;20308;-55
2021/12/18 00:24:03;;;;;;;;;;;22.80;26.00;;;;;;5140269;27;19926;-54
2021/12/18 00:26:29;;;;;;;;;;;22.90;25.80;;;;;;5145864;27;20045;-53
2021/12/18 00:28:55;;;;;;;;;;;22.90;25.90;;;;;;5141052;27;19966;-53
2021/12/18 00:31:20;;;;;;;;;;;22.90;25.90;;;;;;5140716;27;19923;-53
2021/12/18 00:33:46;;;;;;;;;;;23.00;25.80;;;;;;5146213;27;19934;-50
2021/12/18 00:36:12;;;;;;;;;;;23.10;25.70;;;;;;5140796;27;19930;-56
2021/12/18 00:38:40;;;;;;;;;;;22.90;25.90;;;;;;5141677;27;20021;-57
2021/12/18 00:43:37;;;;;;;;;;;23.10;25.70;;;;;;5140129;27;19923;-48
2021/12/18 00:46:04;;;;;;;;;;;23.10;25.70;;;;;;5146238;27;19929;-57
2021/12/18 00:48:30;;;;;;;;;;;23.10;25.70;;;;;;5140653;27;19933;-53
2021/12/18 00:50:56;;;;;;;;;;;22.80;26.00;;;;;;5140449;27;19927;-55
2021/12/18 00:53:21;;;;;;;;;;;22.90;25.90;;;;;;5145754;27;19927;-55
2021/12/18 00:55:49;;;;;;;;;;;22.90;25.90;;;;;;5140227;27;19936;-53
2021/12/18 00:58:14;;;;;;;;;;;23.00;25.80;;;;;;5139975;27;20026;-52
2021/12/18 01:00:41;;;;;;;;;;;23.00;25.70;;;;;;5145229;27;19926;-51
2021/12/18 01:03:15;;;;;;;;;;;23.10;25.60;;;;;;5140146;27;19923;-49
2021/12/18 01:05:41;;;;;;;;;;;23.00;25.60;;;;;;5143199;27;19926;-62
2021/12/18 01:08:07;;;;;;;;;;;23.00;25.70;;;;;;5127939;27;20378;-53
2021/12/18 01:13:11;;;;;;;;;;;22.80;25.90;;;;;;5149336;27;19927;-52
2021/12/18 01:15:43;;;;;;;;;;;22.80;25.80;;;;;;5143701;27;19926;-54
2021/12/18 01:23:37;;;;;;;;;;;22.90;25.70;;;;;;5148107;27;20396;-54
2021/12/18 01:26:04;;;;;;;;;;;22.90;25.60;;;;;;5143679;27;19923;-51
2021/12/18 01:28:29;;;;;;;;;;;23.00;25.60;;;;;;5149252;27;19946;-53
2021/12/18 01:30:55;;;;;;;;;;;23.00;25.50;;;;;;5143615;27;19967;-50
2021/12/18 01:33:21;;;;;;;;;;;23.10;25.40;;;;;;5143874;27;19933;-52
2021/12/18 01:35:47;;;;;;;;;;;23.00;25.50;;;;;;5148822;27;19923;-50
2021/12/18 01:38:13;;;;;;;;;;;23.00;25.50;;;;;;5142950;27;20026;-58
2021/12/18 01:40:39;;;;;;;;;;;23.10;25.40;;;;;;5143558;27;19946;-52
2021/12/18 01:53:37;;;;;;;;;;;23.10;25.30;;;;;;5143145;27;20021;-55
2021/12/18 01:56:03;;;;;;;;;;;23.10;25.20;;;;;;5144089;27;20283;-54
2021/12/18 01:58:29;;;;;;;;;;;23.00;25.30;;;;;;5147586;27;19931;-52
2021/12/18 02:00:55;;;;;;;;;;;23.10;25.20;;;;;;5143230;27;19952;-51
2021/12/18 02:03:21;;;;;;;;;;;23.10;25.30;;;;;;5148614;27;19927;-57
2021/12/18 02:05:48;;;;;;;;;;;23.10;25.20;;;;;;5143229;27;20283;-56
2021/12/18 02:08:15;;;;;;;;;;;23.10;25.30;;;;;;5142963;27;19982;-53
2021/12/18 02:22:16;;;;;;;;;;;23.00;25.30;;;;;;5043888;28;19931;-55
2021/12/18 02:24:42;;;;;;;;;;;23.00;25.30;;;;;;5121186;27;19923;-55
2021/12/18 02:27:07;;;;;;;;;;;23.00;25.30;;;;;;5142644;27;20451;-51
2021/12/18 02:29:36;;;;;;;;;;;22.90;25.30;;;;;;5147962;27;20010;-51
2021/12/18 02:32:02;;;;;;;;;;;23.00;25.30;;;;;;5142413;27;20061;-50
2021/12/18 02:34:31;;;;;;;;;;;23.10;25.20;;;;;;5147562;27;20300;-45
2021/12/18 02:37:03;;;;;;;;;;;23.10;25.20;;;;;;5142802;27;19923;-61
2021/12/18 02:39:56;;;;;;;;;;;23.10;25.20;;;;;;5142493;27;20077;-56
2021/12/18 02:42:22;;;;;;;;;;;23.00;25.30;;;;;;5147384;27;19934;-56
2021/12/18 02:44:48;;;;;;;;;;;22.90;25.30;;;;;;5143224;27;19929;-54
2021/12/18 02:47:14;;;;;;;;;;;22.90;25.30;;;;;;5142400;27;19930;-51
2021/12/18 02:49:47;;;;;;;;;;;23.10;25.20;;;;;;5147630;27;20366;-56
2021/12/18 02:52:13;;;;;;;;;;;22.90;25.30;;;;;;5141915;27;19930;-55
2021/12/18 02:54:41;;;;;;;;;;;22.90;25.30;;;;;;5142711;27;20367;-53
2021/12/18 02:57:07;;;;;;;;;;;22.90;25.20;;;;;;5147773;27;19923;-50
2021/12/18 02:59:43;;;;;;;;;;;23.00;25.20;;;;;;5142264;27;20039;-53
2021/12/18 03:02:09;;;;;;;;;;;23.00;25.20;;;;;;5142408;27;20136;-51
2021/12/18 03:04:37;;;;;;;;;;;23.00;25.10;;;;;;5147466;27;20014;-51
2021/12/18 03:07:05;;;;;;;;;;;23.00;25.10;;;;;;5141789;27;19927;-49
2021/12/18 03:25:37;;;;;;;;;;;22.80;25.30;;;;;;5141506;27;19967;-56
2021/12/18 03:28:04;;;;;;;;;;;22.80;25.30;;;;;;5146863;27;19929;-52
2021/12/18 03:30:30;;;;;;;;;;;22.80;25.30;;;;;;5141502;27;19923;-52
2021/12/18 03:32:56;;;;;;;;;;;22.80;25.30;;;;;;5141863;27;19933;-52
2021/12/18 03:35:22;;;;;;;;;;;22.90;25.20;;;;;;5146992;27;19927;-49
2021/12/18 03:37:48;;;;;;;;;;;22.90;25.20;;;;;;5141852;27;19962;-50
2021/12/18 03:40:15;;;;;;;;;;;22.90;25.20;;;;;;5147038;27;20022;-50
2021/12/18 03:42:41;;;;;;;;;;;23.00;25.10;;;;;;5141424;27;19923;-52
2021/12/18 03:45:07;;;;;;;;;;;22.90;25.10;;;;;;5141384;27;19927;-51
2021/12/18 03:47:32;;;;;;;;;;;22.90;25.10;;;;;;5146364;27;19923;-48
2021/12/18 03:49:58;;;;;;;;;;;23.00;25.10;;;;;;5141726;27;19930;-52
2021/12/18 03:52:24;;;;;;;;;;;23.10;24.90;;;;;;5141888;27;20010;-54
2021/12/18 03:54:50;;;;;;;;;;;22.90;25.20;;;;;;5146735;27;19953;-54
2021/12/18 03:57:16;;;;;;;;;;;22.80;25.20;;;;;;5137066;27;20081;-53
2021/12/18 03:59:42;;;;;;;;;;;22.80;25.20;;;;;;5146453;27;19927;-54
2021/12/18 04:02:07;;;;;;;;;;;22.80;25.20;;;;;;5140859;27;19938;-53
2021/12/18 04:04:33;;;;;;;;;;;22.90;25.20;;;;;;5141026;27;19974;-53
2021/12/18 04:07:00;;;;;;;;;;;22.80;25.10;;;;;;5146086;27;19923;-52
2021/12/18 04:09:28;;;;;;;;;;;22.80;25.10;;;;;;5141219;27;20309;-50
2021/12/18 04:11:54;;;;;;;;;;;22.80;25.10;;;;;;5141059;27;20327;-48
2021/12/18 04:14:20;;;;;;;;;;;22.90;25.10;;;;;;5146670;27;19966;-49
2021/12/18 04:16:46;;;;;;;;;;;22.90;25.10;;;;;;5140764;27;20021;-51
2021/12/18 04:19:12;;;;;;;;;;;22.90;25.00;;;;;;5144481;27;20305;-53
2021/12/18 04:21:37;;;;;;;;;;;23.00;24.90;;;;;;5124517;27;20249;-49
2021/12/18 04:24:03;;;;;;;;;;;23.10;24.80;;;;;;5140617;27;20026;-59
2021/12/18 04:26:30;;;;;;;;;;;22.90;25.00;;;;;;5146319;27;20362;-54
2021/12/18 04:28:56;;;;;;;;;;;22.80;25.10;;;;;;5141290;27;19923;-55
2021/12/18 04:31:22;;;;;;;;;;;22.80;25.10;;;;;;5140903;27;20407;-57
2021/12/18 04:33:47;;;;;;;;;;;22.80;25.10;;;;;;5146238;27;19922;-54
2021/12/18 04:36:13;;;;;;;;;;;22.90;25.00;;;;;;5140742;27;20367;-50
2021/12/18 04:38:39;;;;;;;;;;;22.80;25.00;;;;;;5141651;27;20018;-54
2021/12/18 04:41:06;;;;;;;;;;;22.80;25.00;;;;;;5145267;27;19923;-47
2021/12/18 04:43:32;;;;;;;;;;;23.00;24.80;;;;;;5120766;27;19923;-47
2021/12/18 04:45:57;;;;;;;;;;;23.00;24.80;;;;;;5146228;27;19923;-49
2021/12/18 04:48:23;;;;;;;;;;;23.10;24.70;;;;;;5122095;27;20366;-53
2021/12/18 04:50:49;;;;;;;;;;;23.20;24.60;;;;;;5140680;27;19934;-53
2021/12/18 04:53:15;;;;;;;;;;;23.00;24.80;;;;;;5145897;27;19930;-52
2021/12/18 04:55:40;;;;;;;;;;;23.00;24.80;;;;;;5140314;27;19923;-54
2021/12/18 04:58:06;;;;;;;;;;;22.90;24.70;;;;;;5119650;27;19927;-49
2021/12/18 05:00:40;;;;;;;;;;;23.00;24.70;;;;;;5145545;27;20386;-44
2021/12/18 05:03:07;;;;;;;;;;;23.10;24.60;;;;;;5140828;27;20438;-53
2021/12/18 05:05:33;;;;;;;;;;;23.10;24.50;;;;;;5146112;27;19931;-50
2021/12/18 05:07:59;;;;;;;;;;;23.00;24.70;;;;;;5140639;27;20338;-48
2021/12/18 05:10:25;;;;;;;;;;;23.00;24.60;;;;;;5140398;27;19923;-46
2021/12/18 05:12:51;;;;;;;;;;;23.10;24.50;;;;;;5145778;27;19923;-60
2021/12/18 05:15:17;;;;;;;;;;;23.00;24.60;;;;;;5140135;27;19929;-58
2021/12/18 05:17:43;;;;;;;;;;;22.90;24.70;;;;;;5140220;27;20160;-54
2021/12/18 05:20:08;;;;;;;;;;;22.90;24.70;;;;;;5145046;27;20036;-53
2021/12/18 05:22:34;;;;;;;;;;;22.80;24.80;;;;;;5140352;27;19983;-52
2021/12/18 05:25:00;;;;;;;;;;;22.90;24.70;;;;;;5143709;27;19927;-56
2021/12/18 05:27:26;;;;;;;;;;;23.00;24.60;;;;;;5142817;27;19930;-47
2021/12/18 05:29:51;;;;;;;;;;;23.00;24.60;;;;;;5140028;27;19970;-49
2021/12/18 05:32:17;;;;;;;;;;;23.10;24.50;;;;;;5145372;27;19927;-56
2021/12/18 05:34:43;;;;;;;;;;;23.10;24.60;;;;;;5139968;27;20014;-52
2021/12/18 05:38:09;;;;;;;;;;;23.00;24.60;;;;;;5139718;27;19935;-51
2021/12/18 05:40:04;;;;;;;;;;;23.00;24.60;;;;;;5122787;27;19975;-49
2021/12/18 05:42:30;;;;;;;;;;;23.00;24.50;;;;;;5140288;27;19923;-46
2021/12/18 05:44:55;;;;;;;;;;;23.10;24.50;;;;;;5139904;27;20386;-56
2021/12/18 05:47:21;;;;;;;;;;;22.90;24.60;;;;;;5145195;27;20328;-53
2021/12/18 05:49:47;;;;;;;;;;;22.80;24.70;;;;;;5139735;27;19923;-55
2021/12/18 05:52:13;;;;;;;;;;;22.80;24.70;;;;;;5140323;27;19977;-58
2021/12/18 05:54:39;;;;;;;;;;;22.80;24.70;;;;;;5146458;27;19930;-54
2021/12/18 05:57:09;;;;;;;;;;;22.80;24.70;;;;;;5142727;27;20170;-50
2021/12/18 05:59:35;;;;;;;;;;;22.90;24.60;;;;;;5148906;27;20275;-55
2021/12/18 06:02:01;;;;;;;;;;;22.80;24.60;;;;;;5143332;27;19927;-51
2021/12/18 06:04:27;;;;;;;;;;;22.80;24.60;;;;;;5143146;27;20339;-50
2021/12/18 06:07:03;;;;;;;;;;;22.90;24.50;;;;;;5148605;27;20133;-53
2021/12/18 06:09:28;;;;;;;;;;;22.90;24.50;;;;;;5142851;27;20380;-51
2021/12/18 06:11:54;;;;;;;;;;;22.90;24.50;;;;;;5142687;27;19931;-46
2021/12/18 06:14:20;;;;;;;;;;;22.90;24.50;;;;;;5148131;27;20984;-52
2021/12/18 06:16:46;;;;;;;;;;;22.90;24.40;;;;;;5142802;27;19935;-51
2021/12/18 06:19:11;;;;;;;;;;;22.90;24.40;;;;;;5128345;27;20335;-56
2021/12/18 06:21:37;;;;;;;;;;;23.00;24.40;;;;;;5145060;27;19946;-49
2021/12/18 06:24:03;;;;;;;;;;;23.00;24.40;;;;;;5142963;27;19962;-49
2021/12/18 06:26:29;;;;;;;;;;;23.00;24.40;;;;;;5148232;27;20385;-45
2021/12/18 06:28:55;;;;;;;;;;;23.10;24.30;;;;;;5142513;27;19927;-45
2021/12/18 06:31:21;;;;;;;;;;;23.00;24.30;;;;;;5142570;27;19952;-50
2021/12/18 06:33:47;;;;;;;;;;;23.10;24.30;;;;;;5147655;27;19923;-46
2021/12/18 06:36:12;;;;;;;;;;;23.20;24.20;;;;;;5142976;27;19941;-47
2021/12/18 06:38:38;;;;;;;;;;;23.30;24.10;;;;;;5144097;27;19923;-57
2021/12/18 06:41:04;;;;;;;;;;;23.00;24.30;;;;;;5147201;27;19927;-54
2021/12/18 06:43:30;;;;;;;;;;;22.80;24.40;;;;;;5142670;27;19923;-54
2021/12/18 06:45:55;;;;;;;;;;;22.90;24.40;;;;;;5147977;27;19927;-56
2021/12/18 06:48:21;;;;;;;;;;;22.90;24.40;;;;;;5142536;27;19948;-49
2021/12/18 06:50:47;;;;;;;;;;;22.80;24.40;;;;;;5142330;27;19923;-50
2021/12/18 06:53:13;;;;;;;;;;;22.90;24.30;;;;;;5147466;27;19931;-50
2021/12/18 06:55:39;;;;;;;;;;;22.90;24.30;;;;;;5142627;27;19923;-47
2021/12/18 06:58:04;;;;;;;;;;;22.90;24.30;;;;;;5142287;27;19923;-47
2021/12/18 07:00:30;;;;;;;;;;;22.90;24.30;;;;;;5147668;27;20325;-48
2021/12/18 07:02:56;;;;;;;;;;;23.00;24.20;;;;;;5141980;27;19931;-46
2021/12/18 07:05:22;;;;;;;;;;;23.00;24.10;;;;;;5146913;27;19923;-45
2021/12/18 07:07:50;;;;;;;;;;;23.10;24.00;;;;;;5141705;27;19924;-51
2021/12/18 07:10:15;;;;;;;;;;;23.10;24.00;;;;;;5141720;27;20370;-47
2021/12/18 07:12:41;;;;;;;;;;;23.30;23.90;;;;;;5147638;27;19923;-47
2021/12/18 07:15:08;;;;;;;;;;;23.20;24.00;;;;;;5142413;27;20327;-49
2021/12/18 07:17:33;;;;;;;;;;;23.00;24.10;;;;;;5142203;27;20222;-50
2021/12/18 07:19:59;;;;;;;;;;;23.00;24.10;;;;;;5147544;27;19923;-49
2021/12/18 07:22:25;;;;;;;;;;;23.10;24.10;;;;;;5141792;27;20014;-57
2021/12/18 07:24:51;;;;;;;;;;;23.00;24.10;;;;;;5147326;27;20506;-53
2021/12/18 07:27:16;;;;;;;;;;;22.90;24.30;;;;;;5141680;27;19935;-54
2021/12/18 07:29:42;;;;;;;;;;;22.80;24.30;;;;;;5141253;27;20008;-55
2021/12/18 07:32:08;;;;;;;;;;;22.80;24.40;;;;;;5147631;27;19983;-54
2021/12/18 07:34:34;;;;;;;;;;;22.80;24.40;;;;;;5141681;27;19930;-53
2021/12/18 07:36:59;;;;;;;;;;;22.80;24.50;;;;;;5141651;27;20055;-53
2021/12/18 07:39:25;;;;;;;;;;;22.70;24.50;;;;;;5147195;27;19927;-52
2021/12/18 07:41:51;;;;;;;;;;;22.80;24.40;;;;;;5122907;27;19932;-51
2021/12/18 07:44:17;;;;;;;;;;;22.80;24.40;;;;;;5146667;27;19923;-54
2021/12/18 07:46:42;;;;;;;;;;;22.80;24.40;;;;;;5141821;27;19923;-50
2021/12/18 07:49:08;;;;;;;;;;;22.90;24.40;;;;;;5137170;27;19927;-48
2021/12/18 07:51:34;;;;;;;;;;;22.80;24.40;;;;;;5147254;27;19946;-50
2021/12/18 07:54:00;;;;;;;;;;;22.90;24.40;;;;;;5141336;27;19927;-48
2021/12/18 07:56:25;;;;;;;;;;;22.90;24.40;;;;;;5141584;27;19949;-51
2021/12/18 07:58:52;;;;;;;;;;;22.90;24.40;;;;;;5146741;27;19923;-50
2021/12/18 08:01:17;;;;;;;;;;;23.00;24.40;;;;;;5141089;27;19929;-51
2021/12/18 08:03:43;;;;;;;;;;;22.90;24.50;;;;;;5144329;27;19962;-58
2021/12/18 08:06:09;;;;;;;;;;;22.90;24.50;;;;;;5143253;27;19937;-50
2021/12/18 08:08:35;;;;;;;;;;;23.00;24.40;;;;;;5141337;27;19930;-46
2021/12/18 08:11:01;;;;;;;;;;;22.90;24.50;;;;;;5146828;27;19923;-50
2021/12/18 08:13:26;;;;;;;;;;;23.00;24.40;;;;;;5141112;27;20545;-49
2021/12/18 08:15:52;;;;;;;;;;;23.00;24.50;;;;;;5140656;27;19923;-48
2021/12/18 08:18:18;;;;;;;;;;;23.10;24.40;;;;;;5145752;27;19923;-48
2021/12/18 08:20:44;;;;;;;;;;;23.10;24.50;;;;;;5140846;27;20009;-47
2021/12/18 08:23:09;;;;;;;;;;;23.00;24.50;;;;;;5142012;27;19923;-57
2021/12/18 08:25:35;;;;;;;;;;;23.00;24.50;;;;;;5145059;27;19924;-45
2021/12/18 08:28:01;;;;;;;;;;;23.20;24.40;;;;;;5141144;27;19928;-49
2021/12/18 08:30:27;;;;;;;;;;;23.10;24.40;;;;;;5146559;27;20471;-50
2021/12/18 08:32:53;;;;;;;;;;;22.90;24.60;;;;;;5122388;27;20026;-48
2021/12/18 08:35:19;;;;;;;;;;;23.00;24.60;;;;;;5140769;27;20293;-49
2021/12/18 08:37:44;;;;;;;;;;;23.00;24.60;;;;;;5146094;27;19930;-45
2021/12/18 08:40:11;;;;;;;;;;;23.00;24.60;;;;;;5140427;27;19929;-48
2021/12/18 08:42:37;;;;;;;;;;;23.20;24.50;;;;;;5140253;27;19923;-58
2021/12/18 08:45:03;;;;;;;;;;;23.00;24.60;;;;;;5146096;27;20271;-55
2021/12/18 08:47:29;;;;;;;;;;;22.80;24.80;;;;;;5141033;27;19946;-57
2021/12/18 08:49:54;;;;;;;;;;;22.80;24.90;;;;;;5146070;27;20106;-52
2021/12/18 08:52:21;;;;;;;;;;;22.80;24.90;;;;;;5140531;27;19945;-53
2021/12/18 08:54:47;;;;;;;;;;;22.90;24.80;;;;;;5120324;27;20014;-53
2021/12/18 08:57:13;;;;;;;;;;;22.80;24.90;;;;;;5145874;27;20426;-52
2021/12/18 08:59:38;;;;;;;;;;;22.80;24.90;;;;;;5140272;27;20421;-54
2021/12/18 09:02:05;;;;;;;;;;;22.80;24.90;;;;;;5140011;27;20153;-50
2021/12/18 09:04:31;;;;;;;;;;;22.80;24.90;;;;;;5146225;27;19929;-51
2021/12/18 09:06:57;;;;;;;;;;;22.80;24.90;;;;;;5140441;27;20359;-51
2021/12/18 09:09:22;;;;;;;;;;;22.90;24.80;;;;;;5145811;27;20293;-49
2021/12/18 09:11:48;;;;;;;;;;;22.90;24.90;;;;;;5140263;27;19950;-52
2021/12/18 09:14:14;;;;;;;;;;;22.90;24.90;;;;;;5140104;27;19970;-49
2021/12/18 09:16:40;;;;;;;;;;;23.00;24.90;;;;;;5127014;27;20305;-48
2021/12/18 09:19:05;;;;;;;;;;;22.90;24.90;;;;;;5140308;27;19936;-52
2021/12/18 09:21:31;;;;;;;;;;;23.00;24.80;;;;;;5139556;27;20280;-50
2021/12/18 09:23:57;;;;;;;;;;;23.00;24.80;;;;;;5145932;27;19977;-47
2021/12/18 09:26:23;;;;;;;;;;;23.00;24.80;;;;;;5140273;27;19927;-49
2021/12/18 09:28:49;;;;;;;;;;;23.00;24.80;;;;;;5147383;27;20279;-54
2021/12/18 09:31:14;;;;;;;;;;;23.00;24.80;;;;;;5144379;27;20300;-46
2021/12/18 09:33:40;;;;;;;;;;;23.10;24.70;;;;;;5143545;27;19927;-47
2021/12/18 09:36:06;;;;;;;;;;;23.20;24.60;;;;;;5148881;27;19923;-63
2021/12/18 09:38:32;;;;;;;;;;;23.10;24.70;;;;;;5143110;27;19923;-56
2021/12/18 09:41:00;;;;;;;;;;;22.80;24.90;;;;;;5143290;27;20096;-53
2021/12/18 09:43:26;;;;;;;;;;;22.70;25.10;;;;;;5149319;27;19966;-54
2021/12/18 09:45:52;;;;;;;;;;;22.80;25.10;;;;;;5143726;27;19992;-56
2021/12/18 09:48:19;;;;;;;;;;;22.80;25.10;;;;;;5145170;27;19935;-58
2021/12/18 09:50:48;;;;;;;;;;;22.70;25.10;;;;;;5147952;27;19938;-54
2021/12/18 09:53:14;;;;;;;;;;;22.70;25.20;;;;;;5143297;27;20021;-53
2021/12/18 09:55:40;;;;;;;;;;;22.70;25.10;;;;;;5148965;27;19934;-55
2021/12/18 09:58:06;;;;;;;;;;;22.70;25.10;;;;;;5143142;27;19931;-51
2021/12/18 10:00:31;;;;;;;;;;;22.70;25.10;;;;;;5143323;27;19923;-52
2021/12/18 10:02:57;;;;;;;;;;;22.70;25.10;;;;;;5148707;27;19923;-54
2021/12/18 10:05:25;;;;;;;;;;;22.80;25.00;;;;;;5143263;27;19927;-51
2021/12/18 10:08:09;;;;;;;;;;;22.70;25.00;;;;;;5142956;27;20079;-51
2021/12/18 10:10:35;;;;;;;;;;;22.80;24.90;;;;;;5148276;27;20293;-50
2021/12/18 10:13:03;;;;;;;;;;;22.80;24.90;;;;;;5142868;27;19927;-54
2021/12/18 10:15:29;;;;;;;;;;;22.80;24.90;;;;;;5142488;27;20354;-53
2021/12/18 10:18:03;;;;;;;;;;;22.80;24.80;;;;;;5148365;27;20010;-53
2021/12/18 10:20:28;;;;;;;;;;;22.80;24.80;;;;;;5143054;27;19933;-52
2021/12/18 10:22:55;;;;;;;;;;;22.90;24.80;;;;;;5148257;27;20378;-50
2021/12/18 10:25:21;;;;;;;;;;;22.90;24.70;;;;;;5142685;27;19923;-53
2021/12/18 10:27:54;;;;;;;;;;;22.90;24.70;;;;;;5142656;27;19923;-50
2021/12/18 10:30:20;;;;;;;;;;;22.90;24.70;;;;;;5148097;27;20014;-51
2021/12/18 10:32:55;;;;;;;;;;;23.00;24.60;;;;;;5142560;27;19944;-50
2021/12/18 10:35:22;;;;;;;;;;;23.00;24.60;;;;;;5142178;27;19949;-53
2021/12/18 10:37:47;;;;;;;;;;;23.00;24.60;;;;;;5148165;27;19923;-52
2021/12/18 10:40:13;;;;;;;;;;;22.90;24.60;;;;;;5123187;27;19941;-50
2021/12/18 10:42:40;;;;;;;;;;;23.00;24.50;;;;;;5142439;27;19923;-49
2021/12/18 10:45:06;;;;;;;;;;;23.00;24.50;;;;;;5147901;27;20434;-50
2021/12/18 10:48:01;;;;;;;;;;;23.00;24.50;;;;;;5142410;27;19923;-51
2021/12/18 10:50:32;;;;;;;;;;;23.00;24.40;;;;;;5119547;27;20152;-52
2021/12/18 10:52:59;;;;;;;;;;;23.00;24.40;;;;;;5147255;27;19931;-52
2021/12/18 10:55:26;;;;;;;;;;;23.00;24.40;;;;;;5142336;27;19929;-51
2021/12/18 10:57:52;;;;;;;;;;;23.00;24.40;;;;;;5147065;27;19934;-53
2021/12/18 11:00:28;;;;;;;;;;;23.00;24.40;;;;;;5143866;27;20322;-49
2021/12/18 11:02:54;;;;;;;;;;;23.00;24.40;;;;;;5142430;27;19929;-49
2021/12/18 11:05:20;;;;;;;;;;;23.00;24.40;;;;;;5147523;27;19923;-48
2021/12/18 11:07:47;;;;;;;;;;;23.00;24.40;;;;;;5141987;27;19930;-47
2021/12/18 11:10:43;;;;;;;;;;;23.10;24.30;;;;;;5121712;27;19927;-57
2021/12/18 11:15:54;;;;;;;;;;;22.90;24.60;;;;;;5146721;27;19923;-54
2021/12/18 11:18:19;;;;;;;;;;;22.80;24.60;;;;;;5141910;27;19927;-53
2021/12/18 11:20:50;;;;;;;;;;;22.80;24.60;;;;;;5147220;27;20181;-52
2021/12/18 11:23:17;;;;;;;;;;;22.80;24.60;;;;;;5141829;27;19923;-52
2021/12/18 11:25:42;;;;;;;;;;;22.90;24.50;;;;;;5123112;27;19929;-51
2021/12/18 11:28:08;;;;;;;;;;;22.80;24.60;;;;;;5127790;27;19924;-49
2021/12/18 11:30:34;;;;;;;;;;;22.90;24.50;;;;;;5141010;27;19927;-48
2021/12/18 11:33:00;;;;;;;;;;;22.80;24.50;;;;;;5123383;27;19926;-48
2021/12/18 11:35:27;;;;;;;;;;;22.90;24.40;;;;;;5147184;27;20480;-52
2021/12/18 11:37:56;;;;;;;;;;;22.90;24.40;;;;;;5141754;27;19927;-50
2021/12/18 11:40:26;;;;;;;;;;;22.90;24.40;;;;;;5147215;27;19923;-47
2021/12/18 11:42:52;;;;;;;;;;;22.90;24.50;;;;;;5142550;27;19923;-51
2021/12/18 11:45:18;;;;;;;;;;;22.90;24.50;;;;;;5141257;27;20325;-48
2021/12/18 11:47:44;;;;;;;;;;;23.00;24.40;;;;;;5128118;27;20063;-50
2021/12/18 11:50:19;;;;;;;;;;;23.00;24.40;;;;;;5141318;27;19923;-50
2021/12/18 11:52:51;;;;;;;;;;;23.00;24.40;;;;;;5141859;27;20408;-45
2021/12/18 11:55:17;;;;;;;;;;;23.10;24.30;;;;;;5147307;27;20002;-50
2021/12/18 11:57:44;;;;;;;;;;;23.10;24.20;;;;;;5141665;27;20214;-58
2021/12/18 12:00:10;;;;;;;;;;;23.00;24.40;;;;;;5141342;27;20413;-56
2021/12/18 12:02:49;;;;;;;;;;;22.70;24.60;;;;;;5146813;27;19970;-54
2021/12/18 12:05:16;;;;;;;;;;;22.80;24.40;;;;;;5141215;27;19927;-51
2021/12/18 12:07:43;;;;;;;;;;;22.80;24.50;;;;;;5141671;27;19998;-56
2021/12/18 12:10:21;;;;;;;;;;;22.80;24.40;;;;;;5146945;27;20137;-54
2021/12/18 12:12:51;;;;;;;;;;;22.80;24.40;;;;;;5141163;27;19929;-55
2021/12/18 12:15:17;;;;;;;;;;;22.80;24.40;;;;;;5145838;27;19923;-58
2021/12/18 12:17:56;;;;;;;;;;;22.80;24.30;;;;;;5142311;27;20036;-52
2021/12/18 12:20:41;;;;;;;;;;;22.80;24.30;;;;;;5140770;27;19937;-50
2021/12/18 12:23:11;;;;;;;;;;;22.90;24.20;;;;;;5141935;27;21403;-52
2021/12/18 12:25:41;;;;;;;;;;;23.00;24.10;;;;;;5145992;27;19926;-50
2021/12/18 12:28:08;;;;;;;;;;;22.90;24.10;;;;;;5140987;27;19923;-53
2021/12/18 12:30:42;;;;;;;;;;;23.00;24.00;;;;;;5146532;27;19971;-47
2021/12/18 12:33:10;;;;;;;;;;;23.00;24.00;;;;;;5141041;27;19971;-48
2021/12/18 12:35:55;;;;;;;;;;;23.10;24.00;;;;;;5141090;27;19941;-50
2021/12/18 12:38:24;;;;;;;;;;;23.00;23.90;;;;;;5146270;27;19923;-48
2021/12/18 12:40:50;;;;;;;;;;;23.10;23.90;;;;;;5140604;27;19923;-46
2021/12/18 12:43:18;;;;;;;;;;;23.10;23.80;;;;;;5140544;27;20339;-56
2021/12/18 12:45:46;;;;;;;;;;;23.10;23.80;;;;;;5145882;27;20022;-52
2021/12/18 12:48:12;;;;;;;;;;;23.00;23.90;;;;;;5140980;27;20286;-47
2021/12/18 12:50:37;;;;;;;;;;;23.00;23.80;;;;;;5140680;27;19927;-51
2021/12/18 12:53:07;;;;;;;;;;;23.20;23.70;;;;;;5146132;27;20335;-57
2021/12/18 12:55:42;;;;;;;;;;;23.00;23.80;;;;;;5140524;27;19935;-55
2021/12/18 12:58:18;;;;;;;;;;;22.90;23.90;;;;;;5140557;27;20230;-56
2021/12/18 13:00:45;;;;;;;;;;;22.80;24.00;;;;;;5145514;27;19923;-54
2021/12/18 13:03:14;;;;;;;;;;;22.80;23.90;;;;;;5141121;27;20263;-53
2021/12/18 13:05:45;;;;;;;;;;;22.80;24.00;;;;;;5147581;27;19923;-55
2021/12/18 13:08:11;;;;;;;;;;;22.80;24.00;;;;;;5149408;27;19934;-52
2021/12/18 13:10:38;;;;;;;;;;;22.80;23.90;;;;;;5143982;27;19929;-50
2021/12/18 13:13:07;;;;;;;;;;;22.90;23.80;;;;;;5149507;27;19938;-52
2021/12/18 13:15:52;;;;;;;;;;;22.90;23.80;;;;;;5143730;27;19930;-52
2021/12/18 13:18:18;;;;;;;;;;;22.90;23.90;;;;;;5143713;27;19927;-50
2021/12/18 13:20:57;;;;;;;;;;;22.90;23.80;;;;;;5148781;27;19924;-51
2021/12/18 13:23:36;;;;;;;;;;;23.00;23.80;;;;;;5143708;27;19927;-50
2021/12/18 13:26:01;;;;;;;;;;;23.00;23.70;;;;;;5143883;27;19923;-49
2021/12/18 13:28:27;;;;;;;;;;;23.00;23.80;;;;;;5149224;27;20384;-50
2021/12/18 13:30:54;;;;;;;;;;;22.90;23.80;;;;;;5143479;27;19988;-49
2021/12/18 13:33:24;;;;;;;;;;;23.00;23.70;;;;;;5143549;27;19929;-49
2021/12/18 13:35:53;;;;;;;;;;;22.90;23.80;;;;;;5148906;27;19927;-52
2021/12/18 13:38:19;;;;;;;;;;;23.00;23.70;;;;;;5143511;27;20285;-50
2021/12/18 13:40:46;;;;;;;;;;;23.00;23.70;;;;;;5143158;27;20079;-50
2021/12/18 13:43:12;;;;;;;;;;;23.00;23.70;;;;;;5149228;27;19923;-48
2021/12/18 13:45:49;;;;;;;;;;;23.10;23.60;;;;;;5143344;27;19945;-49
2021/12/18 13:48:15;;;;;;;;;;;23.00;23.60;;;;;;5146456;27;20018;-53
2021/12/18 13:50:41;;;;;;;;;;;23.00;23.70;;;;;;5146381;27;19924;-51
2021/12/18 13:53:07;;;;;;;;;;;23.10;23.60;;;;;;5143306;27;20343;-49
2021/12/18 13:56:05;;;;;;;;;;;23.10;23.60;;;;;;5148705;27;19979;-47
2021/12/18 13:58:32;;;;;;;;;;;23.10;23.70;;;;;;5146310;27;20481;-50
2021/12/18 14:01:00;;;;;;;;;;;23.10;23.60;;;;;;5143839;27;19929;-53
2021/12/18 14:03:36;;;;;;;;;;;22.80;23.90;;;;;;5149060;27;19923;-53
2021/12/18 14:06:05;;;;;;;;;;;22.80;24.00;;;;;;5143386;27;19949;-52
2021/12/18 14:08:31;;;;;;;;;;;22.80;24.00;;;;;;5143442;27;19923;-54
2021/12/18 14:11:00;;;;;;;;;;;22.80;24.10;;;;;;5148465;27;19930;-55
2021/12/18 14:13:27;;;;;;;;;;;22.80;24.10;;;;;;5142967;27;19982;-54
2021/12/18 14:16:03;;;;;;;;;;;22.80;24.10;;;;;;5141518;27;20998;-51
2021/12/18 14:18:52;;;;;;;;;;;22.90;24.00;;;;;;5148366;27;20293;-52
2021/12/18 14:21:19;;;;;;;;;;;22.90;24.00;;;;;;5129563;27;19926;-50
2021/12/18 14:23:45;;;;;;;;;;;23.00;24.00;;;;;;5124417;27;19922;-50
2021/12/18 14:26:14;;;;;;;;;;;23.00;23.90;;;;;;5148349;27;19973;-51
2021/12/18 14:28:42;;;;;;;;;;;22.90;23.90;;;;;;5142645;27;19939;-47
2021/12/18 14:31:23;;;;;;;;;;;23.00;23.80;;;;;;5142715;27;20120;-51
2021/12/18 14:33:52;;;;;;;;;;;23.00;23.80;;;;;;5148149;27;19963;-46
2021/12/18 14:36:36;;;;;;;;;;;23.10;23.80;;;;;;5123908;27;19945;-45
2021/12/18 14:39:02;;;;;;;;;;;23.10;23.70;;;;;;5143336;27;19923;-55
2021/12/18 14:41:29;;;;;;;;;;;23.00;23.80;;;;;;5148050;27;19924;-57
2021/12/18 14:44:05;;;;;;;;;;;22.80;24.10;;;;;;5142822;27;19930;-55
2021/12/18 14:46:33;;;;;;;;;;;22.80;24.10;;;;;;5142609;27;19927;-54
2021/12/18 14:49:08;;;;;;;;;;;22.80;24.20;;;;;;5147922;27;19927;-55
2021/12/18 14:51:34;;;;;;;;;;;22.80;24.20;;;;;;5142569;27;19923;-55
2021/12/18 14:54:00;;;;;;;;;;;22.80;24.20;;;;;;5146368;27;20384;-58
2021/12/18 14:56:25;;;;;;;;;;;22.80;24.20;;;;;;5143713;27;19933;-53
2021/12/18 14:58:51;;;;;;;;;;;22.80;24.20;;;;;;5142656;27;20286;-50
2021/12/18 15:01:17;;;;;;;;;;;22.80;24.20;;;;;;5147846;27;19923;-51
2021/12/18 15:03:44;;;;;;;;;;;22.80;24.20;;;;;;5142261;27;19927;-52
2021/12/18 15:06:10;;;;;;;;;;;22.80;24.20;;;;;;5142178;27;20425;-53
2021/12/18 15:08:40;;;;;;;;;;;22.80;24.20;;;;;;5147655;27;19930;-50
2021/12/18 15:11:08;;;;;;;;;;;22.80;24.40;;;;;;5124139;27;19923;-51